sensor_id;sensor_type;location;lat;lon;timestamp;pressure;altitude;pressure_sealevel;temperature;humidity
36788;BME280;22738;45.560;9.434;2023-04-21T00:05:17;99566.28;;;11.13;100.00
36788;BME280;22738;45.560;9.434;2023-04-21T00:11:58;99563.28;;;11.19;100.00
36788;BME280;22738;45.560;9.434;2023-04-21T00:18:39;99555.50;;;11.19;100.00
36788;BME280;22738;45.560;9.434;2023-04-21T00:25:21;99558.69;;;11.23;100.00
36788;BME280;22738;45.560;9.434;2023-04-21T00:32:02;99556.94;;;11.23;100.00
36788;BME280;22738;45.560;9.434;2023-04-21T00:38:46;99553.63;;;11.21;100.00
36788;BME280;22738;45.560;9.434;2023-04-21T00:45:28;99547.50;;;11.22;100.00
36788;BME280;22738;45.560;9.434;2023-04-21T00:52:12;99553.38;;;11.24;100.00
36788;BME280;22738;45.560;9.434;2023-04-21T00:58:53;99551.53;;;11.26;100.00
36788;BME280;22738;45.560;9.434;2023-04-21T01:05:35;99546.13;;;11.29;100.00
36788;BME280;22738;45.560;9.434;2023-04-21T01:12:17;99554.84;;;11.28;100.00
36788;BME280;22738;45.560;9.434;2023-04-21T01:18:59;99547.16;;;11.27;100.00
36788;BME280;22738;45.560;9.434;2023-04-21T01:25:41;99552.97;;;11.30;100.00
36788;BME280;22738;45.560;9.434;2023-04-21T01:32:25;99550.25;;;11.32;100.00
36788;BME280;22738;45.560;9.434;2023-04-21T01:39:07;99552.16;;;11.30;100.00
36788;BME280;22738;45.560;9.434;2023-04-21T01:45:48;99548.00;;;11.27;100.00
36788;BME280;22738;45.560;9.434;2023-04-21T01:52:29;99543.47;;;11.18;100.00
36788;BME280;22738;45.560;9.434;2023-04-21T01:59:10;99548.00;;;11.27;100.00
36788;BME280;22738;45.560;9.434;2023-04-21T02:05:51;99554.63;;;11.31;100.00
36788;BME280;22738;45.560;9.434;2023-04-21T02:12:32;99562.69;;;11.39;100.00
36788;BME280;22738;45.560;9.434;2023-04-21T02:19:13;99547.84;;;11.41;100.00
36788;BME280;22738;45.560;9.434;2023-04-21T02:25:54;99547.56;;;11.33;100.00
36788;BME280;22738;45.560;9.434;2023-04-21T02:32:35;99546.63;;;11.34;100.00
36788;BME280;22738;45.560;9.434;2023-04-21T02:39:16;99552.31;;;11.39;100.00
36788;BME280;22738;45.560;9.434;2023-04-21T02:45:57;99551.16;;;11.43;100.00
36788;BME280;22738;45.560;9.434;2023-04-21T02:52:38;99567.75;;;11.54;100.00
36788;BME280;22738;45.560;9.434;2023-04-21T02:59:19;99566.78;;;11.55;100.00
36788;BME280;22738;45.560;9.434;2023-04-21T03:06:04;99577.16;;;11.55;100.00
36788;BME280;22738;45.560;9.434;2023-04-21T03:12:45;99590.47;;;11.50;100.00
36788;BME280;22738;45.560;9.434;2023-04-21T03:19:26;99580.22;;;11.48;100.00
36788;BME280;22738;45.560;9.434;2023-04-21T03:26:07;99585.91;;;11.54;100.00
36788;BME280;22738;45.560;9.434;2023-04-21T03:32:48;99602.06;;;11.57;100.00
36788;BME280;22738;45.560;9.434;2023-04-21T03:39:30;99606.00;;;11.63;100.00
36788;BME280;22738;45.560;9.434;2023-04-21T03:46:18;99604.56;;;11.59;100.00
36788;BME280;22738;45.560;9.434;2023-04-21T03:52:59;99600.84;;;11.50;100.00
36788;BME280;22738;45.560;9.434;2023-04-21T03:59:41;99588.00;;;11.48;100.00
36788;BME280;22738;45.560;9.434;2023-04-21T04:06:22;99595.47;;;11.40;100.00
36788;BME280;22738;45.560;9.434;2023-04-21T04:13:03;99595.28;;;11.43;100.00
36788;BME280;22738;45.560;9.434;2023-04-21T04:19:45;99613.31;;;11.45;100.00
36788;BME280;22738;45.560;9.434;2023-04-21T04:26:27;99612.50;;;11.44;100.00
36788;BME280;22738;45.560;9.434;2023-04-21T04:33:09;99609.59;;;11.49;100.00
36788;BME280;22738;45.560;9.434;2023-04-21T04:39:54;99606.31;;;11.34;100.00
36788;BME280;22738;45.560;9.434;2023-04-21T04:46:36;99623.75;;;11.32;100.00
36788;BME280;22738;45.560;9.434;2023-04-21T04:53:17;99637.88;;;11.28;100.00
36788;BME280;22738;45.560;9.434;2023-04-21T04:59:58;99658.19;;;11.34;100.00
36788;BME280;22738;45.560;9.434;2023-04-21T05:06:41;99662.34;;;11.37;100.00
36788;BME280;22738;45.560;9.434;2023-04-21T05:13:22;99671.06;;;11.36;100.00
36788;BME280;22738;45.560;9.434;2023-04-21T05:20:04;99680.75;;;11.21;100.00
36788;BME280;22738;45.560;9.434;2023-04-21T05:26:45;99676.28;;;11.23;100.00
36788;BME280;22738;45.560;9.434;2023-04-21T05:33:26;99671.28;;;11.20;100.00
36788;BME280;22738;45.560;9.434;2023-04-21T05:40:07;99686.03;;;11.20;100.00
36788;BME280;22738;45.560;9.434;2023-04-21T05:46:49;99690.41;;;11.19;100.00
36788;BME280;22738;45.560;9.434;2023-04-21T05:53:31;99695.34;;;11.22;100.00
36788;BME280;22738;45.560;9.434;2023-04-21T06:00:12;99690.41;;;11.19;100.00
36788;BME280;22738;45.560;9.434;2023-04-21T06:06:53;99695.75;;;11.29;100.00
36788;BME280;22738;45.560;9.434;2023-04-21T06:13:36;99703.66;;;11.27;100.00
36788;BME280;22738;45.560;9.434;2023-04-21T06:20:17;99698.56;;;11.38;100.00
36788;BME280;22738;45.560;9.434;2023-04-21T06:26:58;99705.00;;;11.45;100.00
36788;BME280;22738;45.560;9.434;2023-04-21T06:33:40;99712.97;;;11.68;100.00
36788;BME280;22738;45.560;9.434;2023-04-21T06:40:21;99717.94;;;11.71;100.00
36788;BME280;22738;45.560;9.434;2023-04-21T06:47:03;99707.56;;;11.71;100.00
36788;BME280;22738;45.560;9.434;2023-04-21T06:53:44;99709.81;;;11.88;100.00
36788;BME280;22738;45.560;9.434;2023-04-21T07:00:25;99709.69;;;12.13;100.00
36788;BME280;22738;45.560;9.434;2023-04-21T07:07:06;99699.63;;;12.32;100.00
36788;BME280;22738;45.560;9.434;2023-04-21T07:13:48;99704.38;;;12.38;100.00
36788;BME280;22738;45.560;9.434;2023-04-21T07:20:29;99708.88;;;12.36;100.00
36788;BME280;22738;45.560;9.434;2023-04-21T07:27:10;99720.97;;;12.48;100.00
36788;BME280;22738;45.560;9.434;2023-04-21T07:33:51;99733.47;;;12.43;100.00
36788;BME280;22738;45.560;9.434;2023-04-21T07:40:32;99732.63;;;12.43;100.00
36788;BME280;22738;45.560;9.434;2023-04-21T07:47:13;99727.84;;;12.49;100.00
36788;BME280;22738;45.560;9.434;2023-04-21T07:53:54;99733.78;;;12.62;100.00
36788;BME280;22738;45.560;9.434;2023-04-21T08:00:36;99734.75;;;12.72;100.00
36788;BME280;22738;45.560;9.434;2023-04-21T08:07:17;99741.66;;;12.84;100.00
36788;BME280;22738;45.560;9.434;2023-04-21T08:13:58;99741.91;;;12.93;100.00
36788;BME280;22738;45.560;9.434;2023-04-21T08:20:39;99757.06;;;12.99;100.00
36788;BME280;22738;45.560;9.434;2023-04-21T08:27:20;99763.63;;;13.15;100.00
36788;BME280;22738;45.560;9.434;2023-04-21T08:34:01;99774.53;;;13.31;100.00
36788;BME280;22738;45.560;9.434;2023-04-21T08:40:42;99779.66;;;13.44;100.00
36788;BME280;22738;45.560;9.434;2023-04-21T08:47:24;99770.66;;;13.48;100.00
36788;BME280;22738;45.560;9.434;2023-04-21T08:54:05;99782.13;;;13.68;100.00
36788;BME280;22738;45.560;9.434;2023-04-21T09:00:47;99782.97;;;13.79;100.00
36788;BME280;22738;45.560;9.434;2023-04-21T09:07:37;99778.38;;;14.48;100.00
36788;BME280;22738;45.560;9.434;2023-04-21T09:14:21;99774.75;;;15.12;100.00
36788;BME280;22738;45.560;9.434;2023-04-21T09:21:10;99771.94;;;15.25;100.00
36788;BME280;22738;45.560;9.434;2023-04-21T09:27:52;99775.34;;;15.66;100.00
36788;BME280;22738;45.560;9.434;2023-04-21T09:34:40;99778.84;;;15.46;100.00
36788;BME280;22738;45.560;9.434;2023-04-21T09:41:22;99789.41;;;15.75;100.00
36788;BME280;22738;45.560;9.434;2023-04-21T09:48:05;99791.09;;;15.86;100.00
36788;BME280;22738;45.560;9.434;2023-04-21T09:54:51;99799.03;;;16.14;100.00
36788;BME280;22738;45.560;9.434;2023-04-21T10:01:37;99795.78;;;16.41;100.00
36788;BME280;22738;45.560;9.434;2023-04-21T10:08:18;99804.97;;;16.35;100.00
36788;BME280;22738;45.560;9.434;2023-04-21T10:15:03;99789.34;;;17.02;100.00
36788;BME280;22738;45.560;9.434;2023-04-21T10:21:48;99775.22;;;17.42;100.00
36788;BME280;22738;45.560;9.434;2023-04-21T10:35:58;99778.66;;;17.52;100.00
36788;BME280;22738;45.560;9.434;2023-04-21T10:42:42;99781.94;;;18.18;100.00
36788;BME280;22738;45.560;9.434;2023-04-21T10:49:28;99768.28;;;18.77;100.00
36788;BME280;22738;45.560;9.434;2023-04-21T10:56:12;99771.06;;;18.58;100.00
36788;BME280;22738;45.560;9.434;2023-04-21T11:02:58;99753.28;;;18.07;100.00
36788;BME280;22738;45.560;9.434;2023-04-21T11:09:41;99758.72;;;18.40;100.00
36788;BME280;22738;45.560;9.434;2023-04-21T11:16:22;99759.47;;;18.86;100.00
36788;BME280;22738;45.560;9.434;2023-04-21T11:23:05;99753.28;;;18.51;100.00
36788;BME280;22738;45.560;9.434;2023-04-21T11:29:48;99763.03;;;19.20;100.00
36788;BME280;22738;45.560;9.434;2023-04-21T11:36:33;99759.50;;;18.50;100.00
36788;BME280;22738;45.560;9.434;2023-04-21T11:43:15;99743.03;;;19.27;100.00
36788;BME280;22738;45.560;9.434;2023-04-21T11:49:59;99751.59;;;19.29;100.00
36788;BME280;22738;45.560;9.434;2023-04-21T11:56:45;99754.78;;;18.54;100.00
36788;BME280;22738;45.560;9.434;2023-04-21T12:03:27;99759.53;;;19.11;100.00
36788;BME280;22738;45.560;9.434;2023-04-21T12:10:09;99756.06;;;18.85;100.00
36788;BME280;22738;45.560;9.434;2023-04-21T12:16:56;99754.31;;;19.37;100.00
36788;BME280;22738;45.560;9.434;2023-04-21T12:23:37;99756.06;;;18.50;100.00
36788;BME280;22738;45.560;9.434;2023-04-21T12:30:19;99748.13;;;19.46;100.00
36788;BME280;22738;45.560;9.434;2023-04-21T12:37:01;99752.78;;;19.09;100.00
36788;BME280;22738;45.560;9.434;2023-04-21T12:43:43;99755.88;;;19.89;100.00
36788;BME280;22738;45.560;9.434;2023-04-21T12:50:24;99748.22;;;19.70;100.00
36788;BME280;22738;45.560;9.434;2023-04-21T12:57:05;99738.72;;;19.85;100.00
36788;BME280;22738;45.560;9.434;2023-04-21T13:03:46;99731.78;;;19.68;100.00
36788;BME280;22738;45.560;9.434;2023-04-21T13:10:27;99722.97;;;19.52;100.00
36788;BME280;22738;45.560;9.434;2023-04-21T13:17:09;99707.31;;;20.50;100.00
36788;BME280;22738;45.560;9.434;2023-04-21T13:23:51;99699.72;;;20.31;100.00
36788;BME280;22738;45.560;9.434;2023-04-21T13:30:33;99699.31;;;19.93;100.00
36788;BME280;22738;45.560;9.434;2023-04-21T13:37:15;99699.31;;;19.52;100.00
36788;BME280;22738;45.560;9.434;2023-04-21T13:43:56;99686.16;;;19.18;100.00
36788;BME280;22738;45.560;9.434;2023-04-21T13:50:37;99698.09;;;19.38;100.00
36788;BME280;22738;45.560;9.434;2023-04-21T13:57:19;99688.78;;;19.18;100.00
36788;BME280;22738;45.560;9.434;2023-04-21T14:04:01;99689.63;;;19.52;100.00
36788;BME280;22738;45.560;9.434;2023-04-21T14:10:42;99686.97;;;19.44;100.00
36788;BME280;22738;45.560;9.434;2023-04-21T14:17:23;99682.03;;;19.49;100.00
36788;BME280;22738;45.560;9.434;2023-04-21T14:24:04;99684.34;;;19.94;100.00
36788;BME280;22738;45.560;9.434;2023-04-21T14:30:45;99673.66;;;19.96;100.00
36788;BME280;22738;45.560;9.434;2023-04-21T14:37:26;99661.00;;;19.91;100.00
36788;BME280;22738;45.560;9.434;2023-04-21T14:44:07;99664.94;;;19.37;100.00
36788;BME280;22738;45.560;9.434;2023-04-21T14:50:48;99669.31;;;19.70;100.00
36788;BME280;22738;45.560;9.434;2023-04-21T14:57:29;99668.00;;;19.74;100.00
36788;BME280;22738;45.560;9.434;2023-04-21T15:04:10;99670.03;;;19.39;100.00
36788;BME280;22738;45.560;9.434;2023-04-21T15:10:51;99665.78;;;19.54;100.00
36788;BME280;22738;45.560;9.434;2023-04-21T15:17:32;99661.94;;;19.06;100.00
36788;BME280;22738;45.560;9.434;2023-04-21T15:24:13;99656.38;;;18.84;100.00
36788;BME280;22738;45.560;9.434;2023-04-21T15:30:54;99659.34;;;18.81;100.00
36788;BME280;22738;45.560;9.434;2023-04-21T15:37:35;99649.47;;;19.08;100.00
36788;BME280;22738;45.560;9.434;2023-04-21T15:44:16;99649.34;;;19.18;100.00
36788;BME280;22738;45.560;9.434;2023-04-21T15:50:57;99635.81;;;19.05;100.00
36788;BME280;22738;45.560;9.434;2023-04-21T15:57:38;99631.72;;;19.10;100.00
36788;BME280;22738;45.560;9.434;2023-04-21T16:04:19;99642.88;;;18.79;100.00
36788;BME280;22738;45.560;9.434;2023-04-21T16:11:00;99647.53;;;18.59;100.00
36788;BME280;22738;45.560;9.434;2023-04-21T16:17:41;99649.31;;;18.41;100.00
36788;BME280;22738;45.560;9.434;2023-04-21T16:24:22;99650.38;;;18.30;100.00
36788;BME280;22738;45.560;9.434;2023-04-21T16:31:03;99651.41;;;18.20;100.00
36788;BME280;22738;45.560;9.434;2023-04-21T16:37:44;99651.19;;;18.13;100.00
36788;BME280;22738;45.560;9.434;2023-04-21T16:44:25;99652.09;;;18.04;100.00
36788;BME280;22738;45.560;9.434;2023-04-21T16:51:06;99646.13;;;17.94;100.00
36788;BME280;22738;45.560;9.434;2023-04-21T16:57:47;99643.94;;;17.90;100.00
36788;BME280;22738;45.560;9.434;2023-04-21T17:04:28;99647.28;;;17.82;100.00
36788;BME280;22738;45.560;9.434;2023-04-21T17:11:09;99639.66;;;17.71;100.00
36788;BME280;22738;45.560;9.434;2023-04-21T17:17:50;99644.09;;;17.61;100.00
36788;BME280;22738;45.560;9.434;2023-04-21T17:24:31;99640.72;;;17.51;100.00
36788;BME280;22738;45.560;9.434;2023-04-21T17:31:13;99648.44;;;17.43;100.00
36788;BME280;22738;45.560;9.434;2023-04-21T17:37:54;99664.38;;;17.32;100.00
36788;BME280;22738;45.560;9.434;2023-04-21T17:44:36;99665.25;;;17.13;100.00
36788;BME280;22738;45.560;9.434;2023-04-21T17:51:18;99661.72;;;16.95;100.00
36788;BME280;22738;45.560;9.434;2023-04-21T17:57:59;99660.56;;;16.70;100.00
36788;BME280;22738;45.560;9.434;2023-04-21T18:04:41;99671.06;;;16.51;100.00
36788;BME280;22738;45.560;9.434;2023-04-21T18:11:22;99667.47;;;16.33;100.00
36788;BME280;22738;45.560;9.434;2023-04-21T18:18:03;99669.81;;;16.17;100.00
36788;BME280;22738;45.560;9.434;2023-04-21T18:24:44;99673.91;;;15.91;100.00
36788;BME280;22738;45.560;9.434;2023-04-21T18:31:27;99680.63;;;15.74;100.00
36788;BME280;22738;45.560;9.434;2023-04-21T18:38:10;99691.97;;;15.63;100.00
36788;BME280;22738;45.560;9.434;2023-04-21T18:44:53;99693.38;;;15.58;100.00
36788;BME280;22738;45.560;9.434;2023-04-21T18:51:34;99701.16;;;15.48;100.00
36788;BME280;22738;45.560;9.434;2023-04-21T18:58:15;99705.41;;;15.49;100.00
36788;BME280;22738;45.560;9.434;2023-04-21T19:04:57;99708.63;;;15.32;100.00
36788;BME280;22738;45.560;9.434;2023-04-21T19:11:38;99707.34;;;15.27;100.00
36788;BME280;22738;45.560;9.434;2023-04-21T19:18:19;99705.78;;;15.15;100.00
36788;BME280;22738;45.560;9.434;2023-04-21T19:25:02;99704.06;;;15.04;100.00
36788;BME280;22738;45.560;9.434;2023-04-21T19:31:43;99714.13;;;14.88;100.00
36788;BME280;22738;45.560;9.434;2023-04-21T19:38:27;99714.09;;;14.78;100.00
36788;BME280;22738;45.560;9.434;2023-04-21T19:45:08;99720.88;;;14.70;100.00
36788;BME280;22738;45.560;9.434;2023-04-21T19:51:50;99714.53;;;14.63;100.00
36788;BME280;22738;45.560;9.434;2023-04-21T19:58:31;99719.69;;;14.53;100.00
36788;BME280;22738;45.560;9.434;2023-04-21T20:05:12;99733.19;;;14.47;100.00
36788;BME280;22738;45.560;9.434;2023-04-21T20:11:53;99734.03;;;14.48;100.00
36788;BME280;22738;45.560;9.434;2023-04-21T20:18:34;99736.44;;;14.40;100.00
36788;BME280;22738;45.560;9.434;2023-04-21T20:25:15;99737.38;;;14.39;100.00
36788;BME280;22738;45.560;9.434;2023-04-21T20:31:57;99740.22;;;14.36;100.00
36788;BME280;22738;45.560;9.434;2023-04-21T20:38:38;99740.00;;;14.27;100.00
36788;BME280;22738;45.560;9.434;2023-04-21T20:45:19;99745.25;;;14.16;100.00
36788;BME280;22738;45.560;9.434;2023-04-21T20:52:01;99748.81;;;14.04;100.00
36788;BME280;22738;45.560;9.434;2023-04-21T20:58:42;99746.47;;;13.90;100.00
36788;BME280;22738;45.560;9.434;2023-04-21T21:05:24;99757.63;;;13.81;100.00
36788;BME280;22738;45.560;9.434;2023-04-21T21:12:05;99757.53;;;13.72;100.00
36788;BME280;22738;45.560;9.434;2023-04-21T21:18:47;99763.44;;;13.63;100.00
36788;BME280;22738;45.560;9.434;2023-04-21T21:25:28;99761.28;;;13.68;100.00
36788;BME280;22738;45.560;9.434;2023-04-21T21:32:09;99769.25;;;13.66;100.00
36788;BME280;22738;45.560;9.434;2023-04-21T21:38:52;99759.88;;;13.64;100.00
36788;BME280;22738;45.560;9.434;2023-04-21T21:45:33;99758.69;;;13.56;100.00
36788;BME280;22738;45.560;9.434;2023-04-21T21:52:14;99758.34;;;13.50;100.00
36788;BME280;22738;45.560;9.434;2023-04-21T21:58:55;99763.53;;;13.50;100.00
36788;BME280;22738;45.560;9.434;2023-04-21T22:05:36;99765.22;;;13.51;100.00
36788;BME280;22738;45.560;9.434;2023-04-21T22:12:17;99765.22;;;13.51;100.00
36788;BME280;22738;45.560;9.434;2023-04-21T22:18:58;99764.75;;;13.57;100.00
36788;BME280;22738;45.560;9.434;2023-04-21T22:25:39;99769.94;;;13.57;100.00
36788;BME280;22738;45.560;9.434;2023-04-21T22:32:20;99770.91;;;13.67;100.00
36788;BME280;22738;45.560;9.434;2023-04-21T22:39:02;99782.75;;;13.60;100.00
36788;BME280;22738;45.560;9.434;2023-04-21T22:45:44;99785.34;;;13.60;100.00
36788;BME280;22738;45.560;9.434;2023-04-21T22:52:26;99782.75;;;13.60;100.00
36788;BME280;22738;45.560;9.434;2023-04-21T22:59:07;99772.19;;;13.62;100.00
36788;BME280;22738;45.560;9.434;2023-04-21T23:05:48;99776.56;;;13.61;100.00
36788;BME280;22738;45.560;9.434;2023-04-21T23:12:29;99772.41;;;13.58;100.00
36788;BME280;22738;45.560;9.434;2023-04-21T23:19:10;99772.06;;;13.52;100.00
36788;BME280;22738;45.560;9.434;2023-04-21T23:25:51;99781.28;;;13.45;100.00
36788;BME280;22738;45.560;9.434;2023-04-21T23:32:32;99772.78;;;13.43;100.00
36788;BME280;22738;45.560;9.434;2023-04-21T23:39:13;99765.66;;;13.45;100.00
36788;BME280;22738;45.560;9.434;2023-04-21T23:45:54;99762.34;;;13.43;100.00
36788;BME280;22738;45.560;9.434;2023-04-21T23:52:35;99759.06;;;13.41;100.00
36788;BME280;22738;45.560;9.434;2023-04-21T23:59:17;99754.53;;;13.32;100.00
